createdAt,value
2022-10-02T00:01:21.784Z,3.65
2022-10-02T00:03:49.913Z,3.28
2022-10-02T00:06:24.428Z,3.30
2022-10-02T00:08:57.079Z,2.88
2022-10-02T00:11:30.191Z,3.03
2022-10-02T00:14:04.893Z,3.17
2022-10-02T00:16:38.810Z,2.80
2022-10-02T00:19:05.622Z,3.00
2022-10-02T00:21:38.170Z,3.03
2022-10-02T00:24:07.738Z,3.85
2022-10-02T00:26:42.011Z,3.45
2022-10-02T00:29:24.345Z,3.53
2022-10-02T00:32:20.117Z,3.70
2022-10-02T00:35:04.524Z,3.85
2022-10-02T00:37:51.157Z,4.13
2022-10-02T00:40:37.867Z,3.40
2022-10-02T00:43:24.184Z,3.53
2022-10-02T00:46:04.905Z,3.27
2022-10-02T00:48:48.891Z,3.97
2022-10-02T00:51:17.985Z,3.70
2022-10-02T00:54:06.364Z,4.38
2022-10-02T00:56:41.856Z,4.50
2022-10-02T00:59:34.491Z,4.10
2022-10-02T01:02:07.055Z,4.32
2022-10-02T01:04:35.770Z,3.67
2022-10-02T01:07:04.493Z,3.78
2022-10-02T01:09:31.020Z,3.92
2022-10-02T01:11:57.890Z,4.00
2022-10-02T01:14:34.312Z,4.00
2022-10-02T01:17:02.346Z,3.80
2022-10-02T01:19:38.211Z,4.50
2022-10-02T01:22:27.242Z,4.00
2022-10-02T01:24:55.439Z,4.03
2022-10-02T01:27:23.607Z,3.80
2022-10-02T01:30:00.094Z,3.78
2022-10-02T01:32:29.179Z,4.15
2022-10-02T01:34:57.018Z,4.20
2022-10-02T01:37:28.690Z,3.93
2022-10-02T01:40:00.063Z,4.10
2022-10-02T01:42:26.516Z,3.83
2022-10-02T01:44:52.963Z,3.95
2022-10-02T01:47:30.215Z,3.83
2022-10-02T01:50:05.455Z,3.70
2022-10-02T01:52:47.995Z,3.97
2022-10-02T01:55:25.086Z,3.17
2022-10-02T01:58:09.708Z,3.28
2022-10-02T02:00:51.803Z,3.70
2022-10-02T02:03:44.263Z,3.50
2022-10-02T02:06:38.632Z,3.22
2022-10-02T02:09:26.302Z,3.10
2022-10-02T02:12:03.791Z,3.03
2022-10-02T02:14:33.482Z,3.22
2022-10-02T02:17:20.811Z,3.30
2022-10-02T02:19:54.868Z,2.97
2022-10-02T02:22:26.359Z,3.05
2022-10-02T02:25:02.347Z,3.60
2022-10-02T02:27:38.674Z,3.10
2022-10-02T02:30:11.811Z,2.87
2022-10-02T02:32:46.434Z,3.05
2022-10-02T02:35:20.612Z,2.80
2022-10-02T02:37:49.968Z,3.20
2022-10-02T02:40:21.194Z,2.85
2022-10-02T02:42:57.963Z,3.37
2022-10-02T02:45:29.692Z,2.92
2022-10-02T02:48:02.444Z,2.92
2022-10-02T02:50:37.093Z,3.40
2022-10-02T02:53:25.993Z,3.20
2022-10-02T02:55:57.936Z,3.03
2022-10-02T02:58:37.237Z,3.33
2022-10-02T03:01:03.828Z,3.22
2022-10-02T03:03:30.196Z,3.05
2022-10-02T03:06:04.314Z,3.55
2022-10-02T03:08:36.324Z,3.57
2022-10-02T03:11:23.984Z,3.08
2022-10-02T03:14:20.887Z,3.60
2022-10-02T03:17:01.615Z,3.50
2022-10-02T03:19:47.734Z,4.00
2022-10-02T03:22:46.596Z,3.87
2022-10-02T03:25:23.926Z,3.42
2022-10-02T03:28:01.102Z,3.55
2022-10-02T03:30:28.086Z,3.78
2022-10-02T03:32:57.260Z,3.58
2022-10-02T03:35:24.775Z,3.33
2022-10-02T03:37:56.151Z,3.40
2022-10-02T03:40:24.334Z,3.83
2022-10-02T03:42:51.911Z,3.90
2022-10-02T03:45:39.119Z,3.95
2022-10-02T03:48:05.867Z,3.53
2022-10-02T03:50:36.222Z,3.40
2022-10-02T03:53:12.607Z,4.15
2022-10-02T03:55:42.721Z,3.97
2022-10-02T03:58:14.189Z,3.63
2022-10-02T04:00:50.753Z,3.63
2022-10-02T04:03:25.996Z,3.50
2022-10-02T04:06:02.364Z,3.58
2022-10-02T04:08:34.460Z,3.53
2022-10-02T04:11:12.905Z,3.47
2022-10-02T04:13:54.314Z,3.83
2022-10-02T04:16:31.406Z,3.10
2022-10-02T04:19:22.502Z,3.35
2022-10-02T04:21:54.782Z,3.03
2022-10-02T04:24:21.543Z,3.30
2022-10-02T04:27:02.681Z,2.93
2022-10-02T04:29:37.373Z,3.05
2022-10-02T04:32:14.656Z,2.78
2022-10-02T04:34:41.790Z,2.70
2022-10-02T04:37:46.057Z,2.65
2022-10-02T04:40:27.688Z,2.77
2022-10-02T04:43:34.689Z,2.30
2022-10-02T04:46:20.478Z,2.13
2022-10-02T04:49:02.342Z,2.08
2022-10-02T04:51:52.383Z,2.15
2022-10-02T04:54:45.975Z,2.20
2022-10-02T04:57:12.249Z,2.60
2022-10-02T05:00:01.923Z,1.85
2022-10-02T05:02:28.289Z,1.95
2022-10-02T05:05:19.675Z,1.85
2022-10-02T05:08:03.591Z,1.80
2022-10-02T05:10:44.800Z,2.25
2022-10-02T05:13:42.368Z,1.80
2022-10-02T05:16:20.903Z,1.85
2022-10-02T05:19:05.311Z,2.00
2022-10-02T05:21:31.620Z,1.83
2022-10-02T05:24:03.414Z,1.77
2022-10-02T05:26:38.605Z,1.75
2022-10-02T05:29:17.733Z,1.80
2022-10-02T05:32:09.177Z,1.92
2022-10-02T05:34:50.803Z,1.80
2022-10-02T05:37:23.005Z,1.60
2022-10-02T05:40:06.591Z,2.00
2022-10-02T05:42:42.339Z,2.08
2022-10-02T05:45:54.664Z,1.88
2022-10-02T05:48:32.048Z,1.73
2022-10-02T05:51:07.985Z,1.95
2022-10-02T05:53:42.916Z,2.05
2022-10-02T05:56:18.075Z,1.83
2022-10-02T05:58:53.715Z,1.60
2022-10-02T06:01:27.728Z,1.90
2022-10-02T06:04:02.433Z,1.67
2022-10-02T06:06:41.108Z,2.05
2022-10-02T06:09:20.274Z,1.65
2022-10-02T06:12:04.677Z,2.03
2022-10-02T06:14:36.589Z,1.80
2022-10-02T06:17:12.256Z,1.73
2022-10-02T06:19:38.861Z,1.65
2022-10-02T06:22:26.573Z,1.73
2022-10-02T06:25:11.178Z,1.67
2022-10-02T06:27:58.957Z,1.67
2022-10-02T06:30:26.424Z,1.50
2022-10-02T06:33:06.414Z,1.60
2022-10-02T06:35:54.274Z,2.00
2022-10-02T06:38:40.004Z,1.60
2022-10-02T06:41:15.300Z,1.23
2022-10-02T06:44:12.222Z,1.80
2022-10-02T06:46:54.471Z,1.80
2022-10-02T06:49:29.897Z,2.05
2022-10-02T06:52:08.473Z,1.58
2022-10-02T06:54:41.940Z,1.80
2022-10-02T06:57:23.095Z,1.67
2022-10-02T06:59:56.872Z,1.65
2022-10-02T07:02:39.503Z,1.45
2022-10-02T07:05:36.760Z,1.60
2022-10-02T07:08:28.575Z,1.57
2022-10-02T07:11:13.170Z,1.90
2022-10-02T07:14:01.498Z,1.60
2022-10-02T07:16:57.598Z,1.52
2022-10-02T07:19:49.504Z,1.50
2022-10-02T07:22:45.002Z,1.20
2022-10-02T07:25:36.768Z,1.60
2022-10-02T07:28:29.223Z,1.77
2022-10-02T07:31:07.035Z,1.42
2022-10-02T07:33:57.140Z,1.35
2022-10-02T07:36:35.620Z,1.30
2022-10-02T07:39:31.387Z,1.38
2022-10-02T07:42:12.055Z,1.35
2022-10-02T07:44:50.347Z,1.63
2022-10-02T07:47:55.287Z,1.58
2022-10-02T07:51:06.178Z,1.50
2022-10-02T07:53:40.796Z,1.40
2022-10-02T07:56:11.666Z,1.80
2022-10-02T07:58:49.746Z,1.60
2022-10-02T08:01:26.838Z,1.65
2022-10-02T08:03:58.703Z,1.30
2022-10-02T08:06:25.523Z,1.60
2022-10-02T08:09:03.767Z,1.52
2022-10-02T08:11:36.855Z,1.60
2022-10-02T08:14:19.406Z,1.65
2022-10-02T08:16:50.538Z,1.73
2022-10-02T08:19:24.215Z,1.60
2022-10-02T08:21:59.280Z,1.63
2022-10-02T08:24:38.676Z,1.70
2022-10-02T08:27:15.667Z,1.45
2022-10-02T08:29:47.256Z,1.60
2022-10-02T08:32:14.463Z,2.20
2022-10-02T08:34:43.471Z,1.48
2022-10-02T08:37:29.377Z,1.77
2022-10-02T08:40:13.724Z,1.70
2022-10-02T08:43:17.911Z,1.33
2022-10-02T08:46:06.956Z,1.70
2022-10-02T08:49:01.900Z,1.63
2022-10-02T08:51:55.858Z,1.60
2022-10-02T08:55:04.050Z,1.40
2022-10-02T08:57:58.983Z,1.50
2022-10-02T09:00:55.280Z,1.40
2022-10-02T09:03:45.832Z,1.83
2022-10-02T09:06:52.578Z,1.98
2022-10-02T09:09:40.668Z,1.45
2022-10-02T09:12:37.764Z,1.90
2022-10-02T09:15:06.878Z,2.00
2022-10-02T09:17:44.199Z,2.08
2022-10-02T09:20:31.983Z,2.00
2022-10-02T09:23:35.828Z,2.03
2022-10-02T09:26:17.102Z,1.93
2022-10-02T09:28:52.304Z,2.10
2022-10-02T09:32:00.458Z,1.60
2022-10-02T09:34:47.758Z,1.88
2022-10-02T09:37:44.106Z,1.60
2022-10-02T09:40:13.426Z,1.70
2022-10-02T09:43:06.350Z,1.67
2022-10-02T09:45:48.844Z,1.70
2022-10-02T09:48:45.197Z,1.70
2022-10-02T09:51:43.981Z,1.40
2022-10-02T09:54:25.472Z,1.23
2022-10-02T09:57:15.706Z,1.75
2022-10-02T10:00:12.056Z,1.45
2022-10-02T10:03:17.335Z,1.13
2022-10-02T10:06:12.424Z,1.33
2022-10-02T10:09:19.679Z,1.20
2022-10-02T10:12:17.839Z,1.00
2022-10-02T10:15:15.696Z,1.20
2022-10-02T10:18:09.790Z,1.13
2022-10-02T10:21:03.314Z,1.35
2022-10-02T10:23:36.232Z,1.40
2022-10-02T10:26:39.690Z,1.48
2022-10-02T10:29:27.064Z,1.48
2022-10-02T10:32:27.950Z,1.20
2022-10-02T10:35:19.786Z,1.50
2022-10-02T10:38:14.046Z,1.43
2022-10-02T10:41:06.098Z,1.73
2022-10-02T10:44:10.003Z,1.40
2022-10-02T10:46:54.035Z,1.65
2022-10-02T10:49:39.233Z,1.27
2022-10-02T10:52:39.799Z,1.63
2022-10-02T10:55:16.600Z,1.50
2022-10-02T10:58:08.634Z,2.00
2022-10-02T11:00:46.862Z,1.80
2022-10-02T11:03:44.828Z,1.80
2022-10-02T11:06:36.022Z,1.40
2022-10-02T11:09:24.012Z,1.90
2022-10-02T11:12:16.749Z,1.75
2022-10-02T11:14:59.225Z,1.70
2022-10-02T11:17:36.379Z,1.50
2022-10-02T11:20:33.259Z,1.80
2022-10-02T11:23:28.839Z,1.40
2022-10-02T11:26:14.064Z,1.52
2022-10-02T11:29:00.815Z,1.73
2022-10-02T11:31:37.731Z,1.52
2022-10-02T11:34:33.503Z,1.83
2022-10-02T11:37:10.169Z,1.60
2022-10-02T11:39:58.249Z,1.40
2022-10-02T11:42:55.949Z,1.70
2022-10-02T11:45:31.546Z,1.23
2022-10-02T11:48:13.834Z,1.55
2022-10-02T11:51:01.963Z,1.63
2022-10-02T11:53:38.719Z,1.60
2022-10-02T11:56:22.685Z,1.42
2022-10-02T11:59:29.611Z,1.30
2022-10-02T12:02:27.408Z,1.40
2022-10-02T12:05:15.386Z,1.40
2022-10-02T12:07:58.321Z,1.48
2022-10-02T12:10:41.895Z,1.27
2022-10-02T12:13:26.960Z,1.52
2022-10-02T12:16:11.651Z,1.42
2022-10-02T12:18:50.246Z,1.50
2022-10-02T12:22:07.505Z,1.30
2022-10-02T12:25:20.220Z,1.63
2022-10-02T12:28:05.056Z,1.45
2022-10-02T12:30:40.648Z,1.48
2022-10-02T12:33:21.801Z,1.43
2022-10-02T12:36:01.008Z,1.60
2022-10-02T12:38:59.838Z,1.30
2022-10-02T12:41:34.189Z,1.52
2022-10-02T12:44:10.447Z,1.20
2022-10-02T12:47:14.196Z,1.20
2022-10-02T12:50:04.724Z,1.00
2022-10-02T12:53:20.263Z,1.00
2022-10-02T12:56:27.932Z,1.10
2022-10-02T12:59:15.044Z,1.42
2022-10-02T13:01:47.942Z,1.10
2022-10-02T13:04:42.008Z,1.33
2022-10-02T13:07:38.341Z,1.15
2022-10-02T13:10:19.182Z,1.08
2022-10-02T13:13:04.530Z,1.48
2022-10-02T13:15:38.912Z,1.10
2022-10-02T13:18:18.109Z,1.42
2022-10-02T13:21:09.841Z,1.38
2022-10-02T13:23:42.223Z,1.20
2022-10-02T13:26:22.296Z,1.40
2022-10-02T13:28:56.461Z,1.30
2022-10-02T13:31:42.117Z,1.27
2022-10-02T13:34:40.837Z,1.40
2022-10-02T13:37:29.191Z,1.40
2022-10-02T13:40:34.600Z,1.17
2022-10-02T13:43:26.413Z,1.73
2022-10-02T13:46:10.671Z,1.20
2022-10-02T13:48:43.221Z,1.35
2022-10-02T13:51:22.621Z,1.73
2022-10-02T13:53:55.038Z,1.40
2022-10-02T13:56:27.625Z,1.53
2022-10-02T13:58:59.747Z,1.50
2022-10-02T14:01:39.559Z,1.50
2022-10-02T14:04:31.767Z,1.58
2022-10-02T14:07:32.283Z,1.38
2022-10-02T14:10:24.009Z,1.30
2022-10-02T14:13:14.889Z,1.48
2022-10-02T14:16:27.790Z,1.10
2022-10-02T14:19:20.174Z,1.50
2022-10-02T14:22:04.007Z,1.30
2022-10-02T14:25:00.907Z,1.30
2022-10-02T14:27:52.364Z,1.25
2022-10-02T14:30:38.946Z,1.40
2022-10-02T14:33:32.548Z,1.30
2022-10-02T14:36:01.849Z,1.48
2022-10-02T14:38:35.975Z,1.17
2022-10-02T14:41:18.109Z,1.50
2022-10-02T14:44:02.799Z,1.52
2022-10-02T14:46:50.544Z,1.40
2022-10-02T14:49:29.190Z,1.85
2022-10-02T14:51:58.319Z,1.43
2022-10-02T14:54:39.809Z,1.42
2022-10-02T14:57:19.309Z,1.30
2022-10-02T15:00:01.202Z,1.42
2022-10-02T15:02:50.714Z,1.58
2022-10-02T15:05:50.585Z,1.47
2022-10-02T15:08:23.734Z,1.50
2022-10-02T15:10:50.542Z,1.38
2022-10-02T15:13:30.381Z,1.60
2022-10-02T15:16:33.794Z,1.50
2022-10-02T15:19:33.018Z,1.53
2022-10-02T15:22:06.834Z,1.63
2022-10-02T15:24:42.854Z,1.27
2022-10-02T15:27:24.618Z,1.40
2022-10-02T15:30:11.932Z,1.60
2022-10-02T15:33:12.851Z,1.90
2022-10-02T15:36:00.144Z,1.85
2022-10-02T15:38:44.947Z,1.95
2022-10-02T15:41:42.055Z,1.67
2022-10-02T15:44:10.011Z,1.98
2022-10-02T15:47:03.049Z,1.67
2022-10-02T15:50:17.013Z,2.00
2022-10-02T15:53:00.935Z,1.88
2022-10-02T15:55:43.321Z,1.50
2022-10-02T15:58:41.048Z,1.67
2022-10-02T16:01:29.972Z,1.60
2022-10-02T16:04:16.536Z,1.80
2022-10-02T16:07:15.424Z,2.00
2022-10-02T16:10:06.387Z,1.77
2022-10-02T16:12:38.620Z,1.52
2022-10-02T16:15:25.860Z,1.97
2022-10-02T16:18:08.679Z,1.48
2022-10-02T16:20:37.769Z,2.10
2022-10-02T16:23:26.276Z,1.67
2022-10-02T16:26:14.383Z,1.40
2022-10-02T16:29:01.893Z,1.33
2022-10-02T16:32:03.513Z,1.92
2022-10-02T16:35:07.568Z,1.40
2022-10-02T16:37:41.798Z,1.27
2022-10-02T16:40:24.810Z,1.83
2022-10-02T16:43:12.937Z,1.57
2022-10-02T16:45:59.311Z,1.98
2022-10-02T16:48:36.322Z,1.63
2022-10-02T16:51:31.503Z,1.55
2022-10-02T16:54:09.232Z,1.50
2022-10-02T16:56:58.738Z,2.03
2022-10-02T16:59:30.034Z,1.65
2022-10-02T17:02:17.467Z,1.80
2022-10-02T17:05:22.917Z,1.60
2022-10-02T17:08:14.035Z,1.65
2022-10-02T17:11:05.569Z,2.00
2022-10-02T17:13:59.102Z,1.55
2022-10-02T17:16:35.385Z,2.20
2022-10-02T17:19:30.800Z,1.90
2022-10-02T17:22:10.081Z,2.30
2022-10-02T17:24:48.439Z,1.80
2022-10-02T17:27:17.839Z,3.08
2022-10-02T17:30:13.474Z,2.05
2022-10-02T17:32:51.782Z,1.98
2022-10-02T17:35:38.195Z,1.65
2022-10-02T17:38:35.145Z,2.17
2022-10-02T17:41:29.089Z,1.52
2022-10-02T17:44:24.778Z,1.98
2022-10-02T17:47:09.886Z,2.08
2022-10-02T17:50:11.146Z,1.70
2022-10-02T17:53:33.056Z,1.80
2022-10-02T17:56:31.705Z,2.00
2022-10-02T17:59:13.197Z,1.52
2022-10-02T18:02:02.120Z,1.80
2022-10-02T18:04:49.091Z,1.63
2022-10-02T18:07:40.285Z,1.50
2022-10-02T18:10:32.838Z,1.77
2022-10-02T18:13:21.132Z,1.98
2022-10-02T18:16:22.179Z,1.80
2022-10-02T18:18:54.294Z,1.38
2022-10-02T18:21:39.553Z,1.93
2022-10-02T18:24:27.923Z,1.67
2022-10-02T18:27:08.868Z,2.05
2022-10-02T18:29:53.908Z,1.55
2022-10-02T18:32:58.433Z,1.95
2022-10-02T18:35:39.745Z,1.57
2022-10-02T18:38:09.112Z,1.70
2022-10-02T18:40:51.508Z,1.40
2022-10-02T18:43:36.274Z,1.88
2022-10-02T18:46:24.748Z,1.60
2022-10-02T18:49:13.040Z,1.33
2022-10-02T18:51:45.387Z,1.35
2022-10-02T18:54:36.952Z,1.77
2022-10-02T18:57:09.151Z,2.33
2022-10-02T19:00:18.338Z,1.80
2022-10-02T19:03:06.200Z,2.17
2022-10-02T19:05:41.563Z,1.50
2022-10-02T19:08:26.454Z,2.00
2022-10-02T19:10:53.159Z,1.70
2022-10-02T19:13:27.049Z,2.03
2022-10-02T19:15:55.828Z,2.07
2022-10-02T19:18:27.412Z,1.92
2022-10-02T19:21:06.660Z,1.70
2022-10-02T19:23:41.452Z,1.92
2022-10-02T19:26:24.742Z,1.60
2022-10-02T19:29:13.138Z,1.93
2022-10-02T19:31:41.437Z,1.70
2022-10-02T19:34:24.784Z,2.30
2022-10-02T19:36:54.552Z,1.98
2022-10-02T19:39:50.041Z,1.70
2022-10-02T19:42:25.423Z,1.97
2022-10-02T19:45:05.173Z,2.30
2022-10-02T19:47:48.603Z,2.40
2022-10-02T19:50:28.516Z,2.20
2022-10-02T19:52:59.772Z,1.92
2022-10-02T19:55:31.501Z,2.10
2022-10-02T19:58:06.275Z,1.90
2022-10-02T20:00:38.561Z,2.17
2022-10-02T20:03:13.222Z,1.75
2022-10-02T20:05:41.943Z,1.85
2022-10-02T20:08:16.843Z,2.27
2022-10-02T20:10:50.616Z,1.73
2022-10-02T20:13:23.722Z,1.70
2022-10-02T20:16:14.040Z,2.00
2022-10-02T20:18:40.571Z,1.90
2022-10-02T20:21:15.666Z,1.90
2022-10-02T20:23:48.470Z,2.00
2022-10-02T20:26:19.311Z,1.77
2022-10-02T20:28:59.062Z,1.58
2022-10-02T20:31:56.480Z,1.73
2022-10-02T20:34:39.319Z,1.60
2022-10-02T20:37:12.327Z,1.60
2022-10-02T20:39:51.226Z,2.03
2022-10-02T20:42:26.823Z,2.13
2022-10-02T20:44:53.308Z,1.95
2022-10-02T20:47:49.944Z,1.90
2022-10-02T20:50:34.512Z,2.05
2022-10-02T20:53:45.008Z,1.85
2022-10-02T20:56:33.176Z,1.90
2022-10-02T20:59:28.912Z,1.83
2022-10-02T21:02:16.569Z,1.50
2022-10-02T21:05:06.168Z,1.80
2022-10-02T21:07:41.602Z,1.73
2022-10-02T21:10:37.671Z,1.98
2022-10-02T21:13:27.556Z,1.73
2022-10-02T21:16:42.149Z,1.70
2022-10-02T21:19:23.639Z,1.90
2022-10-02T21:22:11.794Z,2.20
2022-10-02T21:24:56.787Z,2.00
2022-10-02T21:27:43.857Z,2.28
2022-10-02T21:30:16.953Z,1.90
2022-10-02T21:32:57.359Z,1.85
2022-10-02T21:35:43.883Z,2.00
2022-10-02T21:38:38.012Z,1.85
2022-10-02T21:41:44.144Z,1.83
2022-10-02T21:44:28.713Z,1.70
2022-10-02T21:47:33.427Z,1.58
2022-10-02T21:50:08.528Z,1.70
2022-10-02T21:53:20.246Z,1.70
2022-10-02T21:56:12.415Z,1.60
2022-10-02T21:58:57.353Z,1.57
2022-10-02T22:02:08.787Z,1.65
2022-10-02T22:05:09.675Z,1.80
2022-10-02T22:07:47.243Z,2.17
2022-10-02T22:10:30.013Z,1.85
2022-10-02T22:13:20.674Z,1.60
2022-10-02T22:16:18.620Z,2.10
2022-10-02T22:18:54.482Z,1.77
2022-10-02T22:21:50.883Z,1.60
2022-10-02T22:24:48.885Z,1.90
2022-10-02T22:27:36.709Z,1.60
2022-10-02T22:30:04.092Z,1.73
2022-10-02T22:33:12.067Z,1.55
2022-10-02T22:36:06.145Z,1.73
2022-10-02T22:38:40.471Z,1.90
2022-10-02T22:41:16.043Z,2.10
2022-10-02T22:43:56.021Z,1.80
2022-10-02T22:46:36.675Z,1.70
2022-10-02T22:49:20.892Z,2.08
2022-10-02T22:52:12.809Z,2.10
2022-10-02T22:54:55.485Z,1.80
2022-10-02T22:57:32.834Z,1.70
2022-10-02T23:00:04.982Z,1.70
2022-10-02T23:02:44.135Z,1.17
2022-10-02T23:05:30.949Z,1.27
2022-10-02T23:08:10.613Z,1.70
2022-10-02T23:10:46.707Z,1.67
2022-10-02T23:13:26.316Z,1.75
2022-10-02T23:16:10.396Z,1.45
2022-10-02T23:18:57.950Z,1.67
2022-10-02T23:21:46.800Z,1.57
2022-10-02T23:24:37.618Z,1.52
2022-10-02T23:27:23.789Z,1.90
2022-10-02T23:30:05.092Z,1.63
2022-10-02T23:32:55.175Z,2.03
2022-10-02T23:35:46.375Z,1.70
2022-10-02T23:38:16.687Z,1.35
2022-10-02T23:41:17.142Z,1.40
2022-10-02T23:43:54.800Z,1.65
2022-10-02T23:46:28.181Z,1.90
2022-10-02T23:48:55.583Z,1.60
2022-10-02T23:51:27.211Z,1.52
2022-10-02T23:54:11.153Z,1.77
2022-10-02T23:56:50.884Z,1.73
2022-10-02T23:59:25.715Z,1.50
